SPZ weather

Silver Springs Airport
Silver Springs, Nevada, United States

Public forecast

Using degrees Fahrenheit for public forecast. Weather courtesy of forecast.io.

Closest aviation weather report (METAR) to Silver Springs Airport

Closest report is Reno Tahoe International Airport, 24.7 nm (45.7 km) WNW. Retrieved 2019/10/22 01:55 UTC (40 minutes ago):

KRNO 220155Z VRB05KT 10SM FEW250 17/M02 A3035 RMK AO2 SLP257 T01721022

Closest aviation forecast (TAF) to Silver Springs Airport

Closest forecast is Reno Tahoe International Airport, 24.7 nm (45.7 km) WNW. Retrieved 2019-10-22 00:22 UTC (2 hours ago):

TAF KRNO 212320Z 2200/2224 VRB04KT P6SM FEW200 FM221900 06007KT P6SM FEW200